Time;durP1;ratioP1;P1;durP2;ratioP2;P2;SDS_P1;SDS_P2;PMS_P1;PMS_P2;Temp;Humidity;BMP_temperature;BMP_pressure;BME280_temperature;BME280_humidity;BME280_pressure;Samples;Min_cycle;Max_cycle;Signal;HPM_P1;HPM_P2
2022/11/11 00:00:36;;;;;;;8.25;3.63;;;;;;;7.24;100.00;100320.00;4891596;29;20053;-82
2022/11/11 00:03:42;;;;;;;5.20;3.20;;;;;;;7.22;100.00;100327.00;4886607;29;20047;-84
2022/11/11 00:06:46;;;;;;;6.10;4.53;;;;;;;7.00;100.00;100332.84;4893170;29;20115;-85
2022/11/11 00:09:49;;;;;;;8.60;4.90;;;;;;;6.78;100.00;100329.09;4889248;29;20043;-85
2022/11/11 00:12:52;;;;;;;8.85;5.10;;;;;;;6.75;100.00;100328.31;4892156;29;20104;-84
2022/11/11 00:15:57;;;;;;;9.05;5.68;;;;;;;6.65;100.00;100331.19;4877303;29;20075;-83
2022/11/11 00:25:44;;;;;;;8.40;4.90;;;;;;;6.59;100.00;100328.75;4892885;29;19923;-85
2022/11/11 00:28:47;;;;;;;6.78;4.80;;;;;;;6.58;100.00;100328.78;4895383;29;20245;-85
2022/11/11 00:38:45;;;;;;;7.30;4.60;;;;;;;6.49;100.00;100327.28;4892638;29;20513;-86
2022/11/11 00:41:49;;;;;;;6.03;3.70;;;;;;;6.52;100.00;100335.00;4897845;29;20232;-84
2022/11/11 00:44:52;;;;;;;6.82;4.13;;;;;;;6.55;100.00;100321.03;4886391;29;20055;-86
2022/11/11 00:51:29;;;;;;;4.82;3.40;;;;;;;6.57;100.00;100321.88;4883521;29;20055;-88
2022/11/11 00:54:34;;;;;;;6.00;4.05;;;;;;;6.58;100.00;100327.03;4851701;29;20165;-85
2022/11/11 00:57:37;;;;;;;7.88;4.00;;;;;;;6.62;100.00;100327.81;4909284;29;20095;-84
2022/11/11 01:00:40;;;;;;;8.25;4.40;;;;;;;6.60;100.00;100330.44;4894680;29;20055;-83
2022/11/11 01:03:44;;;;;;;6.28;4.03;;;;;;;6.58;100.00;100329.63;4902781;29;20055;-83
2022/11/11 01:06:47;;;;;;;8.30;4.28;;;;;;;6.58;100.00;100329.63;4895621;29;20079;-84
2022/11/11 01:09:51;;;;;;;9.40;4.47;;;;;;;6.57;100.00;100327.06;4885077;29;20052;-84
2022/11/11 01:13:10;;;;;;;6.57;3.95;;;;;;;6.57;100.00;100337.50;4903700;29;20066;-84
2022/11/11 01:16:17;;;;;;;5.43;3.55;;;;;;;6.56;100.00;100339.22;4886529;29;20262;-84
2022/11/11 01:19:21;;;;;;;6.78;4.05;;;;;;;6.53;100.00;100334.97;4900116;29;20512;-85
2022/11/11 01:22:24;;;;;;;5.95;3.50;;;;;;;6.51;100.00;100331.53;4894321;29;20059;-85
2022/11/11 01:25:29;;;;;;;7.32;4.13;;;;;;;6.52;100.00;100322.84;4891559;29;20061;-84
2022/11/11 01:28:32;;;;;;;6.18;3.97;;;;;;;6.46;100.00;100317.81;4882447;29;20104;-85
2022/11/11 01:31:36;;;;;;;7.53;3.50;;;;;;;6.43;100.00;100323.06;4887663;29;20065;-85
2022/11/11 01:34:39;;;;;;;5.75;3.58;;;;;;;6.45;100.00;100315.22;4891167;29;20049;-84
2022/11/11 01:37:43;;;;;;;7.78;5.32;;;;;;;6.44;100.00;100318.72;4892213;29;20139;-90
2022/11/11 01:40:47;;;;;;;6.68;3.53;;;;;;;6.47;100.00;100316.91;4892511;29;20068;-84
2022/11/11 01:43:54;;;;;;;7.55;3.88;;;;;;;6.45;100.00;100320.44;4885397;29;20250;-83
2022/11/11 01:47:04;;;;;;;6.55;3.45;;;;;;;6.45;100.00;100315.22;4891804;29;20048;-84
2022/11/11 01:50:08;;;;;;;6.68;4.00;;;;;;;6.49;100.00;100322.94;4880105;29;20084;-85
2022/11/11 01:53:12;;;;;;;7.30;4.35;;;;;;;6.48;100.00;100330.78;4892821;29;20045;-84
2022/11/11 01:56:16;;;;;;;7.90;4.68;;;;;;;6.37;100.00;100329.31;4881302;29;20432;-85
2022/11/11 01:59:20;;;;;;;6.05;4.07;;;;;;;6.29;100.00;100326.06;4892976;29;20100;-83
2022/11/11 02:02:28;;;;;;;7.15;4.43;;;;;;;6.25;100.00;100332.25;4897328;29;20037;-83
2022/11/11 02:05:42;;;;;;;9.27;5.95;;;;;;;6.25;100.00;100338.28;4894491;29;20456;-85
2022/11/11 02:08:45;;;;;;;8.38;4.75;;;;;;;6.25;100.00;100332.25;4889662;29;20065;-88
2022/11/11 02:15:11;;;;;;;7.25;4.72;;;;;;;6.24;100.00;100341.78;4906038;29;20120;-85
2022/11/11 02:18:15;;;;;;;6.10;4.03;;;;;;;6.23;100.00;100337.50;4904990;29;20081;-85
2022/11/11 02:21:54;;;;;;;7.47;4.70;;;;;;;6.15;100.00;100349.84;4895021;29;20037;-84
2022/11/11 02:24:58;;;;;;;7.90;4.53;;;;;;;6.14;100.00;100343.78;4840250;29;20069;-84
2022/11/11 02:28:05;;;;;;;5.80;4.00;;;;;;;6.14;100.00;100338.56;4812546;29;20165;-82
2022/11/11 02:31:09;;;;;;;8.18;4.18;;;;;;;6.11;100.00;100338.66;4825317;29;20068;-84
2022/11/11 02:34:13;;;;;;;5.50;3.55;;;;;;;6.09;100.00;100339.59;4828664;29;20206;-85
2022/11/11 02:37:21;;;;;;;10.07;5.10;;;;;;;6.10;100.00;100342.16;4832682;29;20047;-84
2022/11/11 02:40:30;;;;;;;7.43;3.83;;;;;;;6.12;100.00;100348.16;4824238;29;20089;-84
2022/11/11 02:43:33;;;;;;;7.20;4.50;;;;;;;6.26;100.00;100350.44;4819490;29;20058;-85
2022/11/11 02:46:37;;;;;;;6.38;4.47;;;;;;;6.26;100.00;100347.81;4825417;29;20088;-85
2022/11/11 02:49:40;;;;;;;6.70;3.90;;;;;;;6.28;100.00;100343.41;4830756;29;20041;-84
2022/11/11 02:52:44;;;;;;;5.07;3.63;;;;;;;6.28;100.00;100343.41;4823569;29;20565;-85
2022/11/11 02:55:47;;;;;;;5.75;4.00;;;;;;;6.32;100.00;100349.41;4825346;29;20091;-85
2022/11/11 02:58:51;;;;;;;7.55;4.25;;;;;;;6.36;100.00;100344.97;4818993;29;20042;-84
2022/11/11 03:01:56;;;;;;;6.25;3.95;;;;;;;6.47;100.00;100355.09;4889670;29;20048;-85
2022/11/11 03:05:00;;;;;;;8.57;3.50;;;;;;;6.48;100.00;100357.66;4904223;29;20044;-84
2022/11/11 03:08:03;;;;;;;6.78;3.78;;;;;;;6.49;100.00;100367.19;4891728;29;20045;-87
2022/11/11 03:11:07;;;;;;;6.55;3.42;;;;;;;6.48;100.00;100375.88;4888636;29;20044;-87
2022/11/11 03:14:10;;;;;;;5.03;3.35;;;;;;;6.58;100.00;100381.72;4885503;29;20052;-85
2022/11/11 03:23:58;;;;;;;7.85;3.90;;;;;;;6.67;100.00;100384.97;4902333;29;20041;-85
2022/11/11 03:27:01;;;;;;;5.40;3.50;;;;;;;6.69;100.00;100384.03;4882628;29;20377;-87
2022/11/11 03:30:05;;;;;;;7.15;3.63;;;;;;;6.69;100.00;100402.25;4900264;29;20048;-82
2022/11/11 03:33:08;;;;;;;5.38;3.20;;;;;;;6.68;100.00;100397.09;4893922;29;20069;-81
2022/11/11 03:36:12;;;;;;;6.43;2.90;;;;;;;6.64;100.00;100401.56;4896382;29;20049;-84
2022/11/11 03:39:16;;;;;;;6.10;3.47;;;;;;;6.58;100.00;100410.38;4886453;29;20404;-85
2022/11/11 03:42:19;;;;;;;4.18;2.60;;;;;;;6.51;100.00;100409.66;4898430;29;20181;-84
2022/11/11 03:45:22;;;;;;;5.78;2.92;;;;;;;6.48;100.00;100401.94;4889461;29;20040;-86
2022/11/11 03:48:28;;;;;;;4.03;2.30;;;;;;;6.49;100.00;100413.22;4880405;29;20116;-86
2022/11/11 03:51:33;;;;;;;4.93;2.55;;;;;;;6.56;100.00;100408.72;4904559;29;20404;-86
2022/11/11 03:54:36;;;;;;;3.42;2.22;;;;;;;6.61;100.00;100415.50;4881008;29;20548;-85
2022/11/11 03:57:45;;;;;;;5.68;2.97;;;;;;;6.63;100.00;100416.31;4893239;29;20044;-85
2022/11/11 04:00:48;;;;;;;5.25;2.88;;;;;;;6.63;100.00;100416.31;4886498;29;20100;-87
2022/11/11 04:10:36;;;;;;;5.00;2.95;;;;;;;6.40;100.00;100415.16;4889995;29;20362;-84
2022/11/11 04:17:06;;;;;;;3.72;2.33;;;;;;;6.46;100.00;100411.56;4889634;29;20056;-85
2022/11/11 04:23:32;;;;;;;3.53;2.17;;;;;;;6.52;100.00;100415.72;4888591;29;20029;-87
2022/11/11 04:26:35;;;;;;;4.70;2.08;;;;;;;6.58;100.00;100406.91;4875876;29;20041;-85
2022/11/11 04:29:40;;;;;;;3.88;2.40;;;;;;;6.60;100.00;100399.91;4890089;29;20041;-84
2022/11/11 04:32:46;;;;;;;4.50;2.13;;;;;;;6.61;100.00;100401.63;4892549;29;20049;-85
2022/11/11 04:35:49;;;;;;;3.83;2.10;;;;;;;6.65;100.00;100400.66;4890568;29;20056;-85
2022/11/11 04:42:15;;;;;;;4.45;2.28;;;;;;;6.46;100.00;100408.09;4903980;29;20484;-82
2022/11/11 04:45:29;;;;;;;4.30;2.20;;;;;;;6.46;100.00;100403.75;4902698;29;20147;-84
2022/11/11 04:48:32;;;;;;;3.65;1.80;;;;;;;6.47;100.00;100399.38;4879625;29;20048;-85
2022/11/11 04:58:26;;;;;;;4.63;2.13;;;;;;;6.37;100.00;100402.22;4884920;29;20249;-85
2022/11/11 05:04:52;;;;;;;5.85;2.40;;;;;;;6.41;100.00;100403.00;4891671;29;20040;-84
2022/11/11 05:11:24;;;;;;;4.72;1.98;;;;;;;6.51;100.00;100403.63;4896199;29;20443;-83
2022/11/11 05:21:24;;;;;;;6.70;2.00;;;;;;;6.39;100.00;100408.25;4908745;29;20127;-86
2022/11/11 05:27:50;;;;;;;3.72;2.50;;;;;;;6.97;100.00;100398.09;4892784;29;20115;-83
2022/11/11 05:30:54;;;;;;;5.32;2.05;;;;;;;6.83;100.00;100396.69;4905581;29;20056;-87
2022/11/11 05:33:57;;;;;;;5.18;2.15;;;;;;;6.68;100.00;100403.16;4880666;29;20048;-86
2022/11/11 05:37:00;;;;;;;4.05;2.20;;;;;;;6.60;100.00;100408.59;4892313;29;20037;-84
2022/11/11 05:40:04;;;;;;;14.10;3.92;;;;;;;7.77;100.00;100401.84;4889562;29;20044;-83
2022/11/11 05:43:08;;;;;;;5.45;1.90;;;;;;;8.02;100.00;100403.72;4903520;29;20375;-80
2022/11/11 05:46:11;;;;;;;6.30;2.60;;;;;;;7.71;100.00;100400.31;4894785;29;20060;-81
2022/11/11 05:49:14;;;;;;;3.30;2.05;;;;;;;7.52;100.00;100408.66;4881952;29;20092;-79
2022/11/11 05:52:17;;;;;;;26.80;15.23;;;;;;;7.10;100.00;100407.25;4894169;29;20045;-78
2022/11/11 05:55:21;;;;;;;10.57;7.82;;;;;;;10.87;100.00;100416.81;4885366;29;20384;-81
2022/11/11 05:58:24;;;;;;;13.48;6.90;;;;;;;9.40;100.00;100412.16;4859172;29;20053;-80
2022/11/11 06:01:28;;;;;;;6.43;3.08;;;;;;;10.98;100.00;100424.22;4890794;29;20079;-80
2022/11/11 06:04:34;;;;;;;3.40;2.28;;;;;;;8.24;100.00;100424.75;4879071;29;20059;-79
2022/11/11 06:07:39;;;;;;;6.53;2.80;;;;;;;7.35;100.00;100442.22;4895163;29;20130;-82
2022/11/11 06:10:43;;;;;;;4.03;2.67;;;;;;;7.32;100.00;100450.97;4889543;29;20670;-81
2022/11/11 06:13:47;;;;;;;6.15;2.92;;;;;;;7.52;100.00;100458.22;4902442;29;20519;-82
2022/11/11 06:16:50;;;;;;;8.13;3.33;;;;;;;7.44;100.00;100465.41;4892876;29;20052;-80
2022/11/11 06:19:53;;;;;;;7.18;3.08;;;;;;;7.50;100.00;100477.44;4888215;29;20139;-78
2022/11/11 06:22:56;;;;;;;4.65;3.00;;;;;;;7.58;100.00;100475.47;4890686;29;20044;-80
2022/11/11 06:26:12;;;;;;;8.23;3.35;;;;;;;7.80;100.00;100482.66;4893117;29;20043;-78
2022/11/11 06:29:15;;;;;;;4.93;3.08;;;;;;;7.82;100.00;100493.03;4882064;29;20060;-84
2022/11/11 06:32:19;;;;;;;5.78;3.42;;;;;;;8.07;100.00;100489.69;4888648;29;20189;-80
2022/11/11 06:35:22;;;;;;;5.50;3.33;;;;;;;8.23;100.00;100488.31;4897822;29;20044;-82
2022/11/11 06:38:25;;;;;;;6.80;3.72;;;;;;;8.47;100.00;100498.88;4888104;29;20041;-82
2022/11/11 06:41:28;;;;;;;7.03;3.90;;;;;;;8.68;100.00;100504.34;4888457;29;20052;-81
2022/11/11 06:44:31;;;;;;;6.20;3.80;;;;;;;8.96;100.00;100511.28;4884751;29;20057;-81
2022/11/11 06:47:34;;;;;;;6.15;4.07;;;;;;;9.48;97.93;100520.81;4892571;29;20132;-81
2022/11/11 06:50:37;;;;;;;8.25;3.88;;;;;;;10.29;94.01;100527.44;4879029;29;20511;-81
2022/11/11 06:53:41;;;;;;;5.68;3.65;;;;;;;10.50;91.79;100522.28;4889500;29;20036;-82
2022/11/11 06:56:47;;;;;;;8.48;3.88;;;;;;;10.33;90.35;100520.31;4902149;29;20037;-81
2022/11/11 06:59:52;;;;;;;7.28;3.40;;;;;;;10.07;92.91;100527.44;4891397;29;20033;-81
2022/11/11 07:02:55;;;;;;;7.40;3.67;;;;;;;9.90;94.05;100525.44;4891297;29;20046;-81
2022/11/11 07:06:03;;;;;;;8.93;4.45;;;;;;;10.12;93.13;100530.69;4892245;29;20040;-80
2022/11/11 07:09:10;;;;;;;8.68;4.32;;;;;;;10.30;92.28;100536.13;4881881;29;20051;-81
2022/11/11 07:12:14;;;;;;;8.27;4.25;;;;;;;10.26;91.92;100531.94;4879360;29;20052;-82
2022/11/11 07:15:17;;;;;;;8.38;4.85;;;;;;;10.18;91.98;100533.09;4891709;29;20131;-82
2022/11/11 07:18:20;;;;;;;8.85;5.28;;;;;;;10.29;93.28;100534.44;4888320;29;20449;-81
2022/11/11 07:21:24;;;;;;;7.03;4.78;;;;;;;10.79;91.01;100528.09;4880694;29;20045;-80
2022/11/11 07:24:27;;;;;;;7.15;4.82;;;;;;;11.58;87.42;100526.50;4889800;29;20396;-82
2022/11/11 07:27:31;;;;;;;6.00;3.67;;;;;;;12.00;84.62;100529.00;4890623;29;20048;-81
2022/11/11 07:30:33;;;;;;;6.13;4.10;;;;;;;12.01;82.24;100524.63;4894293;29;20052;-81
2022/11/11 07:33:37;;;;;;;10.30;4.43;;;;;;;12.72;80.60;100524.78;4890006;29;20575;-80
2022/11/11 07:36:40;;;;;;;8.80;4.50;;;;;;;12.89;78.52;100511.63;4880750;29;20043;-82
2022/11/11 07:39:45;;;;;;;9.70;5.85;;;;;;;12.87;79.73;100510.88;4891391;29;20040;-82
2022/11/11 07:42:49;;;;;;;9.35;5.82;;;;;;;13.28;77.28;100520.22;4877348;29;20041;-82
2022/11/11 07:45:52;;;;;;;8.80;5.18;;;;;;;13.47;75.69;100518.38;4901121;29;20075;-82
2022/11/11 07:48:55;;;;;;;8.35;5.13;;;;;;;14.03;73.25;100513.66;4892361;29;20047;-81
2022/11/11 07:51:59;;;;;;;7.97;4.40;;;;;;;13.70;73.46;100511.06;4876652;29;20449;-81
2022/11/11 07:55:07;;;;;;;8.23;4.40;;;;;;;13.41;73.60;100509.91;4890549;29;20060;-81
2022/11/11 07:58:10;;;;;;;5.97;3.85;;;;;;;13.38;71.66;100515.31;4888458;29;20101;-81
2022/11/11 08:01:13;;;;;;;5.68;3.50;;;;;;;13.51;71.20;100519.97;4889135;29;20100;-82
2022/11/11 08:04:16;;;;;;;6.15;3.60;;;;;;;13.40;71.89;100516.06;4890380;29;20040;-81
2022/11/11 08:07:20;;;;;;;9.10;5.28;;;;;;;13.66;73.67;100524.41;4888870;29;20139;-84
2022/11/11 08:10:24;;;;;;;9.55;4.80;;;;;;;13.54;75.04;100520.66;4898978;29;20451;-83
2022/11/11 08:13:42;;;;;;;10.65;6.65;;;;;;;13.32;76.09;100517.44;4877728;29;20033;-82
2022/11/11 08:16:46;;;;;;;10.65;6.32;;;;;;;12.99;77.20;100519.09;4879461;29;20089;-82
2022/11/11 08:19:49;;;;;;;9.38;5.78;;;;;;;13.03;77.23;100518.84;4911857;29;20041;-82
2022/11/11 08:22:54;;;;;;;5.25;2.90;;;;;;;12.73;73.91;100529.13;4906349;29;20581;-83
2022/11/11 08:26:05;;;;;;;7.03;3.13;;;;;;;12.78;75.05;100527.09;4894805;29;20056;-81
2022/11/11 08:29:09;;;;;;;9.20;6.28;;;;;;;12.91;79.28;100522.13;4885535;29;20124;-83
2022/11/11 08:32:13;;;;;;;7.55;4.13;;;;;;;13.22;75.98;100533.69;4889352;29;20037;-82
2022/11/11 08:35:16;;;;;;;6.78;4.20;;;;;;;12.87;77.49;100531.94;4895564;29;20144;-81
2022/11/11 08:38:22;;;;;;;11.90;6.97;;;;;;;13.34;78.14;100533.97;4888132;29;20131;-81
2022/11/11 08:41:25;;;;;;;10.82;6.30;;;;;;;13.60;77.91;100539.69;4905139;29;20483;-80
2022/11/11 08:44:28;;;;;;;12.52;6.65;;;;;;;14.07;76.19;100532.78;4892483;29;20059;-81
2022/11/11 08:47:32;;;;;;;12.18;6.10;;;;;;;14.50;75.02;100536.56;4894958;29;20090;-82
2022/11/11 08:50:37;;;;;;;11.35;6.05;;;;;;;14.31;75.04;100542.03;4888794;29;20044;-81
2022/11/11 08:53:40;;;;;;;10.35;6.35;;;;;;;14.37;75.12;100545.19;4905191;29;20067;-82
2022/11/11 08:56:43;;;;;;;10.07;6.10;;;;;;;14.35;74.73;100540.91;4892738;29;20044;-82
2022/11/11 08:59:47;;;;;;;16.95;7.88;;;;;;;14.35;74.33;100539.13;4888445;29;20119;-81
2022/11/11 09:02:50;;;;;;;9.10;5.80;;;;;;;14.03;75.82;100540.00;4892371;29;20701;-81
2022/11/11 09:05:53;;;;;;;9.98;5.35;;;;;;;14.23;75.03;100545.13;4890992;29;20055;-81
2022/11/11 09:08:56;;;;;;;8.02;5.22;;;;;;;13.67;77.53;100547.19;4878644;29;20139;-82
2022/11/11 09:12:00;;;;;;;12.90;7.80;;;;;;;14.25;75.60;100551.13;4886942;29;20071;-82
2022/11/11 09:15:04;;;;;;;10.65;6.43;;;;;;;14.54;73.11;100552.13;4879796;29;20090;-81
2022/11/11 09:18:09;;;;;;;6.85;4.97;;;;;;;15.21;72.34;100549.25;4889790;29;20055;-81
2022/11/11 09:21:12;;;;;;;11.68;5.90;;;;;;;14.75;72.15;100543.09;4892015;29;20077;-81
2022/11/11 09:24:15;;;;;;;7.65;5.10;;;;;;;14.87;72.32;100552.94;4890899;29;20070;-82
2022/11/11 09:27:19;;;;;;;8.02;5.18;;;;;;;14.99;72.84;100561.94;4902902;29;20059;-82
2022/11/11 09:30:23;;;;;;;7.00;5.03;;;;;;;15.38;70.66;100566.72;4891829;29;20072;-80
2022/11/11 09:33:26;;;;;;;15.05;8.07;;;;;;;15.50;70.78;100565.97;4892791;29;20040;-81
2022/11/11 09:36:29;;;;;;;6.50;4.68;;;;;;;17.11;65.02;100562.97;4875272;29;20489;-82
2022/11/11 09:39:33;;;;;;;10.50;5.05;;;;;;;16.67;64.54;100555.22;4890034;29;20045;-81
2022/11/11 09:42:41;;;;;;;7.53;5.30;;;;;;;17.21;63.26;100553.44;4890313;29;20544;-82
2022/11/11 09:46:04;;;;;;;6.00;4.28;;;;;;;16.99;63.29;100562.81;4892133;29;20497;-81
2022/11/11 09:49:19;;;;;;;5.80;4.43;;;;;;;16.88;62.77;100554.72;4899116;29;20033;-82
2022/11/11 09:52:46;;;;;;;6.60;4.60;;;;;;;16.77;62.87;100568.69;4887991;29;20052;-81
2022/11/11 09:56:00;;;;;;;7.50;4.55;;;;;;;16.90;61.84;100552.84;4899093;29;20045;-81
2022/11/11 09:59:20;;;;;;;7.45;4.40;;;;;;;17.40;59.58;100552.16;4888678;29;20048;-81
2022/11/11 10:02:46;;;;;;;7.07;4.68;;;;;;;16.70;62.69;100549.72;4887976;29;20242;-81
2022/11/11 10:05:55;;;;;;;5.35;3.42;;;;;;;17.36;60.56;100543.59;4897567;29;20045;-80
2022/11/11 10:09:05;;;;;;;4.70;3.63;;;;;;;17.88;59.34;100549.78;4892472;29;20062;-83
2022/11/11 10:12:14;;;;;;;7.60;4.32;;;;;;;18.67;56.64;100546.75;4899545;29;20044;-81
2022/11/11 10:15:19;;;;;;;5.68;3.60;;;;;;;18.77;54.91;100552.22;4875307;29;20509;-82
2022/11/11 10:18:34;;;;;;;6.00;3.45;;;;;;;18.45;56.98;100558.97;4881800;29;20041;-82
2022/11/11 10:21:48;;;;;;;5.07;3.03;;;;;;;19.31;53.89;100559.75;4891333;29;20068;-81
2022/11/11 10:25:11;;;;;;;4.82;3.58;;;;;;;19.17;54.42;100548.38;4901246;29;20385;-81
2022/11/11 10:28:18;;;;;;;7.07;3.63;;;;;;;19.70;53.02;100538.13;4899118;29;20496;-82
2022/11/11 10:31:24;;;;;;;4.53;3.30;;;;;;;19.36;53.48;100536.31;4900477;29;20056;-82
2022/11/11 10:34:32;;;;;;;4.60;3.10;;;;;;;18.86;54.62;100540.06;4886487;29;20480;-82
2022/11/11 10:37:39;;;;;;;4.85;3.05;;;;;;;18.70;54.18;100537.72;4879392;29;20036;-83
2022/11/11 10:40:53;;;;;;;5.93;3.30;;;;;;;19.01;54.72;100540.72;4890095;29;20086;-83
2022/11/11 10:43:56;;;;;;;4.65;2.72;;;;;;;20.42;50.69;100524.47;4889821;29;20111;-82
2022/11/11 10:47:41;;;;;;;5.78;3.42;;;;;;;19.06;53.43;100521.78;4885370;29;20375;-81
2022/11/11 10:50:55;;;;;;;5.30;2.90;;;;;;;18.34;55.52;100530.56;4886742;29;20059;-82
2022/11/11 10:54:09;;;;;;;6.30;2.70;;;;;;;19.30;53.66;100519.06;4880048;29;20180;-82
2022/11/11 10:57:47;;;;;;;5.25;2.30;;;;;;;18.50;55.34;100533.91;4886875;29;20048;-81
2022/11/11 11:00:53;;;;;;;3.85;2.50;;;;;;;18.44;55.66;100541.34;4899034;29;20043;-82
2022/11/11 11:04:05;;;;;;;5.32;2.60;;;;;;;18.53;54.52;100526.56;4887972;29;20048;-82
2022/11/11 11:07:12;;;;;;;4.32;2.03;;;;;;;19.83;52.55;100519.38;4890130;29;20408;-82
2022/11/11 11:10:36;;;;;;;4.82;2.65;;;;;;;20.70;49.47;100511.53;4873253;29;20037;-81
2022/11/11 11:13:51;;;;;;;3.58;2.38;;;;;;;19.88;49.84;100522.53;4886600;29;20089;-82
2022/11/11 11:16:59;;;;;;;3.35;2.10;;;;;;;19.61;52.54;100512.28;4894986;29;20476;-88
2022/11/11 11:20:21;;;;;;;4.40;1.98;;;;;;;21.02;48.42;100507.16;4898851;29;20051;-82
2022/11/11 11:23:41;;;;;;;3.40;2.22;;;;;;;20.68;48.55;100505.47;4889008;29;20064;-80
2022/11/11 11:26:47;;;;;;;4.88;2.58;;;;;;;20.33;48.62;100498.63;4885307;29;20464;-84
2022/11/11 11:29:50;;;;;;;3.88;2.20;;;;;;;19.58;50.54;100492.94;4874682;29;20082;-84
2022/11/11 11:33:02;;;;;;;4.35;2.30;;;;;;;18.65;53.24;100481.50;4889784;29;20045;-82
2022/11/11 11:36:15;;;;;;;3.20;2.45;;;;;;;18.69;53.05;100482.94;4888594;29;20510;-83
2022/11/11 11:39:34;;;;;;;4.50;2.50;;;;;;;19.81;51.65;100484.94;4891669;29;20408;-83
2022/11/11 11:42:38;;;;;;;2.20;1.77;;;;;;;19.70;51.14;100479.66;4885820;29;20048;-83
2022/11/11 11:45:42;;;;;;;4.30;2.70;;;;;;;19.16;51.92;100490.91;4889603;29;20536;-82
2022/11/11 11:49:10;;;;;;;4.55;2.15;;;;;;;19.14;52.38;100492.84;4890960;29;20052;-85
2022/11/11 11:52:48;;;;;;;6.45;2.75;;;;;;;18.63;55.01;100497.53;4900721;29;20041;-83
2022/11/11 11:56:04;;;;;;;2.92;1.90;;;;;;;19.27;53.15;100494.53;4874912;29;20105;-81
2022/11/11 11:59:25;;;;;;;38.42;12.10;;;;;;;20.20;55.07;100504.97;4867475;29;20116;-82
2022/11/11 12:02:49;;;;;;;5.72;3.17;;;;;;;20.52;49.38;100504.13;4889647;29;20089;-82
2022/11/11 12:06:08;;;;;;;5.22;2.42;;;;;;;20.22;49.89;100494.19;4900887;29;20124;-82
2022/11/11 12:09:47;;;;;;;4.40;2.30;;;;;;;20.86;49.25;100489.78;4900288;29;20045;-82
2022/11/11 12:13:07;;;;;;;4.53;2.45;;;;;;;20.90;48.47;100488.56;4891197;29;20791;-82
2022/11/11 12:16:39;;;;;;;3.67;2.45;;;;;;;20.76;49.08;100481.72;4885157;29;20108;-82
2022/11/11 12:20:15;;;;;;;4.93;2.72;;;;;;;20.59;49.64;100495.59;4875587;29;20048;-81
2022/11/11 12:23:41;;;;;;;4.22;2.10;;;;;;;20.05;50.18;100504.41;4900774;29;20044;-82
2022/11/11 12:27:06;;;;;;;4.50;2.33;;;;;;;20.05;51.87;100497.28;4897475;29;20053;-82
2022/11/11 12:30:17;;;;;;;4.68;2.55;;;;;;;20.10;49.81;100499.56;4887108;29;20492;-82
2022/11/11 12:33:37;;;;;;;;;;;;;;;19.67;51.85;100506.47;4896147;29;20043;-81
2022/11/11 12:36:50;;;;;;;4.82;1.95;;;;;;;18.58;51.35;100503.19;4883189;29;20390;-83
2022/11/11 12:40:02;;;;;;;3.65;1.08;;;;;;;17.38;52.83;100498.47;4889235;29;20037;-82
2022/11/11 12:43:19;;;;;;;3.80;1.00;;;;;;;18.42;50.30;100490.22;4894684;29;20057;-82
2022/11/11 12:46:51;;;;;;;6.07;2.85;;;;;;;18.98;53.21;100468.41;4875566;29;20062;-82
2022/11/11 12:50:23;;;;;;;5.88;3.10;;;;;;;19.01;53.42;100460.22;4878570;29;20107;-82
2022/11/11 12:53:41;;;;;;;4.25;3.00;;;;;;;18.12;55.79;100464.13;4892821;29;20492;-81
2022/11/11 12:57:27;;;;;;;5.18;2.58;;;;;;;18.35;56.00;100462.44;4899636;29;20085;-82
2022/11/11 13:00:36;;;;;;;5.90;2.60;;;;;;;18.27;56.41;100462.16;4893020;29;20108;-82
2022/11/11 13:04:35;;;;;;;5.22;2.55;;;;;;;18.52;54.92;100463.84;4889271;29;20049;-81
2022/11/11 13:07:56;;;;;;;6.72;2.67;;;;;;;18.67;54.29;100453.84;4805665;29;20058;-81
2022/11/11 13:11:12;;;;;;;3.60;2.38;;;;;;;18.71;54.03;100450.03;4830929;29;20060;-83
2022/11/11 13:14:46;;;;;;;6.80;2.90;;;;;;;18.77;54.27;100448.69;4813916;29;20042;-82
2022/11/11 13:17:50;;;;;;;6.32;2.85;;;;;;;19.36;52.70;100446.00;4824708;29;20945;-81
2022/11/11 13:21:06;;;;;;;5.57;2.63;;;;;;;19.56;52.12;100451.53;4804621;29;20046;-82
2022/11/11 13:24:12;;;;;;;5.82;2.70;;;;;;;18.89;53.59;100456.69;4820071;29;20119;-80
2022/11/11 13:27:41;;;;;;;4.53;2.50;;;;;;;18.39;54.65;100465.72;4822959;29;20058;-81
2022/11/11 13:31:06;;;;;;;5.15;3.15;;;;;;;19.27;53.64;100466.19;4820852;29;20054;-80
2022/11/11 13:34:13;;;;;;;5.60;2.33;;;;;;;19.17;53.21;100468.72;4830744;29;20041;-84
2022/11/11 13:37:27;;;;;;;5.50;2.15;;;;;;;20.00;51.30;100469.31;4818738;29;20217;-82
2022/11/11 13:40:33;;;;;;;4.30;2.20;;;;;;;20.00;50.65;100456.03;4823217;29;20077;-82
2022/11/11 13:43:39;;;;;;;6.63;2.40;;;;;;;20.19;50.10;100461.56;4880651;29;20512;-79
2022/11/11 13:46:45;;;;;;;3.72;2.22;;;;;;;19.98;50.53;100460.63;4893893;29;20052;-81
2022/11/11 13:50:00;;;;;;;3.22;2.63;;;;;;;19.12;52.30;100454.94;4877798;29;20045;-81
2022/11/11 13:53:05;;;;;;;5.45;2.25;;;;;;;18.90;53.50;100453.09;4898921;29;20041;-81
2022/11/11 13:56:10;;;;;;;6.13;2.38;;;;;;;18.92;53.73;100462.59;4897767;29;20150;-81
2022/11/11 13:59:24;;;;;;;4.15;2.28;;;;;;;18.82;53.13;100472.22;4901259;29;20048;-81
2022/11/11 14:02:31;;;;;;;5.82;2.30;;;;;;;19.00;53.25;100466.50;4902651;29;20403;-82
2022/11/11 14:05:34;;;;;;;3.00;1.90;;;;;;;18.93;53.27;100471.44;4899174;29;20483;-81
2022/11/11 14:08:48;;;;;;;5.28;1.73;;;;;;;19.05;53.19;100464.31;4877368;29;20123;-81
2022/11/11 14:12:22;;;;;;;3.70;2.28;;;;;;;18.54;53.59;100467.22;4891238;29;20444;-82
2022/11/11 14:15:44;;;;;;;6.30;2.22;;;;;;;18.77;54.34;100467.28;4887715;29;20052;-82
2022/11/11 14:18:47;;;;;;;4.50;2.13;;;;;;;18.86;53.43;100456.91;4886619;29;20183;-81
2022/11/11 14:21:56;;;;;;;5.57;2.40;;;;;;;18.38;54.56;100456.09;4885749;29;20064;-80
2022/11/11 14:25:31;;;;;;;4.97;2.47;;;;;;;17.75;55.94;100463.22;4905951;29;20460;-82
2022/11/11 14:28:46;;;;;;;4.25;2.47;;;;;;;17.09;58.23;100462.47;4826924;29;20049;-81
2022/11/11 14:31:49;;;;;;;3.30;1.88;;;;;;;17.35;58.01;100445.69;4840744;29;20140;-80
2022/11/11 14:35:17;;;;;;;4.70;1.83;;;;;;;16.92;58.65;100442.44;4837991;29;20049;-80
2022/11/11 14:38:54;;;;;;;6.30;2.03;;;;;;;16.87;59.44;100441.91;4851689;29;20165;-82
2022/11/11 14:41:57;;;;;;;4.40;2.15;;;;;;;17.10;58.76;100447.44;4838672;29;20057;-81
2022/11/11 14:45:05;;;;;;;3.47;1.90;;;;;;;16.79;59.88;100444.22;4836672;29;20576;-80
2022/11/11 14:48:45;;;;;;;4.70;2.72;;;;;;;16.23;61.56;100443.47;4842567;29;20422;-82
2022/11/11 14:51:55;;;;;;;5.88;2.72;;;;;;;15.82;63.01;100451.31;4840073;29;20052;-81
2022/11/11 14:55:06;;;;;;;7.03;2.28;;;;;;;15.85;63.46;100450.25;4835092;29;20050;-82
2022/11/11 14:58:16;;;;;;;4.85;2.83;;;;;;;15.71;64.22;100449.38;4852471;29;20053;-80
2022/11/11 15:01:20;;;;;;;7.53;2.70;;;;;;;15.33;65.60;100447.31;4836565;29;20057;-83
2022/11/11 15:04:26;;;;;;;3.95;2.72;;;;;;;15.24;65.91;100448.75;4856323;29;20596;-81
2022/11/11 15:07:41;;;;;;;4.22;2.47;;;;;;;14.75;70.54;100442.84;4895950;29;20052;-80
2022/11/11 15:11:16;;;;;;;7.55;2.88;;;;;;;14.31;69.95;100439.25;4885249;29;20068;-80
2022/11/11 15:14:44;;;;;;;7.63;3.13;;;;;;;13.97;71.11;100445.47;4885684;29;20056;-80
2022/11/11 15:18:11;;;;;;;6.53;3.80;;;;;;;13.08;75.39;100439.69;4885037;29;20060;-81
2022/11/11 15:21:35;;;;;;;5.70;3.10;;;;;;;12.34;83.41;100450.38;4892496;29;20044;-79
2022/11/11 15:25:16;;;;;;;6.15;3.13;;;;;;;11.66;86.63;100459.66;4887590;29;20041;-80
2022/11/11 15:28:37;;;;;;;4.18;2.63;;;;;;;11.25;89.47;100450.13;4887010;29;20474;-81
2022/11/11 15:32:28;;;;;;;8.88;3.83;;;;;;;10.92;92.83;100456.78;4881998;29;20151;-80
2022/11/11 15:35:47;;;;;;;6.82;3.03;;;;;;;10.84;93.68;100455.34;4841456;29;20093;-81
2022/11/11 15:38:52;;;;;;;6.72;3.83;;;;;;;10.64;94.79;100458.81;4827460;29;20056;-81
2022/11/11 15:41:56;;;;;;;8.55;3.97;;;;;;;10.54;96.67;100454.88;4829446;29;20121;-80
2022/11/11 15:45:07;;;;;;;5.55;3.45;;;;;;;10.82;96.02;100459.81;4827811;29;20058;-80
2022/11/11 15:48:22;;;;;;;5.78;3.40;;;;;;;13.80;100.00;100462.25;4837257;29;21073;-81